Great Basin Natl Park, Nevada
Current Conditions -  °F | °C
As of 8:53 PM on Saturday 25 Oct 2014 (Local Time) from KELY Reporting Station
Clear Clear  
Wind Chill: 58°   Ceiling: Unl
Heat Index: 58°   Visibility: 10mi
Dew Point: 30°   Wind: 15mph
Humidity: 35%   Direction: 190°S
Pressure: 30.03"   Gusts: 25mph
Location:  39°N, 114.25°W
Report Text: KELY 260353Z AUTO 19013G22KT 10SM CLR 14/M01 A3003 RMK AO2 PK WND 19030/0308 SLP091 T01441011
Loading
Personal Weather Stations






























Interactive Weather Map
Tropical Storm Tracking
New forecast layout! Learn more

10-Day Weather Forecast

Advertisements
Track Severe Weather on mobile